Time;durP1;ratioP1;P1;durP2;ratioP2;P2;SDS_P1;SDS_P2;PMS_P1;PMS_P2;Temp;Humidity;BMP_temperature;BMP_pressure;BME280_temperature;BME280_humidity;BME280_pressure;Samples;Min_cycle;Max_cycle;Signal;HPM_P1;HPM_P2
2021/05/31 00:01:17;;;;;;;1.95;1.73;;;;;;;;;;5045680;28;20136;-80
2021/05/31 00:03:43;;;;;;;1.55;1.40;;;;;;;;;;5041723;28;20398;-80
2021/05/31 00:06:10;;;;;;;2.03;1.70;;;;;;;;;;5055690;28;20026;-79
2021/05/31 00:08:36;;;;;;;3.30;1.90;;;;;;;;;;5050216;28;20120;-81
2021/05/31 00:11:03;;;;;;;2.20;2.00;;;;;;;;;;5042050;28;20031;-80
2021/05/31 00:13:29;;;;;;;3.47;2.30;;;;;;;;;;5039600;28;20077;-81
2021/05/31 00:15:56;;;;;;;1.98;1.73;;;;;;;;;;5039434;28;20026;-80
2021/05/31 00:18:22;;;;;;;2.10;1.90;;;;;;;;;;5039991;28;20030;-80
2021/05/31 00:20:48;;;;;;;2.22;2.03;;;;;;;;;;5043950;28;20034;-81
2021/05/31 00:23:16;;;;;;;2.28;1.67;;;;;;;;;;5042896;28;20057;-81
2021/05/31 00:25:42;;;;;;;2.30;1.90;;;;;;;;;;5032991;28;20041;-80
2021/05/31 00:28:08;;;;;;;4.50;2.08;;;;;;;;;;5023583;28;20022;-81
2021/05/31 00:30:34;;;;;;;5.50;2.38;;;;;;;;;;5022293;28;20038;-79
2021/05/31 00:33:00;;;;;;;1.80;1.65;;;;;;;;;;5021894;28;20030;-81
2021/05/31 00:35:26;;;;;;;3.20;2.30;;;;;;;;;;5022660;28;20040;-80
2021/05/31 00:37:55;;;;;;;2.47;1.73;;;;;;;;;;5022029;28;20060;-80
2021/05/31 00:40:22;;;;;;;2.40;1.80;;;;;;;;;;5022640;28;20022;-81
2021/05/31 00:42:48;;;;;;;2.25;1.63;;;;;;;;;;5022532;28;20028;-80
2021/05/31 00:45:15;;;;;;;2.00;1.60;;;;;;;;;;5022726;28;20375;-81
2021/05/31 00:47:41;;;;;;;1.73;1.63;;;;;;;;;;5023893;28;20034;-80
2021/05/31 00:50:07;;;;;;;3.28;2.25;;;;;;;;;;5025281;28;20026;-80
2021/05/31 00:52:34;;;;;;;2.75;1.92;;;;;;;;;;5022624;28;20018;-81
2021/05/31 00:55:00;;;;;;;2.63;1.75;;;;;;;;;;5029957;28;20433;-81
2021/05/31 00:57:26;;;;;;;1.95;1.80;;;;;;;;;;5035775;28;20033;-81
2021/05/31 00:59:54;;;;;;;2.13;1.90;;;;;;;;;;5041906;28;20041;-81
2021/05/31 01:02:20;;;;;;;1.70;1.60;;;;;;;;;;5042292;28;20051;-81
2021/05/31 01:04:46;;;;;;;2.10;1.90;;;;;;;;;;5047353;28;20025;-80
2021/05/31 01:07:30;;;;;;;1.70;1.60;;;;;;;;;;5053135;28;20026;-80
2021/05/31 01:09:59;;;;;;;1.70;1.58;;;;;;;;;;5052151;28;20029;-80
2021/05/31 01:12:36;;;;;;;3.53;2.10;;;;;;;;;;5051464;28;20057;-80
2021/05/31 01:15:05;;;;;;;2.20;2.00;;;;;;;;;;5052044;28;20029;-80
2021/05/31 01:17:34;;;;;;;2.33;2.00;;;;;;;;;;5051771;28;20021;-80
2021/05/31 01:20:05;;;;;;;5.68;2.92;;;;;;;;;;5051610;28;20051;-80
2021/05/31 01:22:34;;;;;;;3.78;2.78;;;;;;;;;;5048663;28;20026;-79
2021/05/31 01:25:09;;;;;;;2.40;2.20;;;;;;;;;;5045026;28;20033;-81
2021/05/31 01:27:59;;;;;;;3.78;2.00;;;;;;;;;;5044046;28;20029;-80
2021/05/31 01:30:25;;;;;;;2.97;2.25;;;;;;;;;;5049187;28;20120;-80
2021/05/31 01:32:52;;;;;;;2.90;2.67;;;;;;;;;;5049567;28;20367;-80
2021/05/31 01:35:22;;;;;;;5.63;2.40;;;;;;;;;;5048799;28;20048;-81
2021/05/31 01:37:49;;;;;;;5.57;3.45;;;;;;;;;;5051481;28;20022;-80
2021/05/31 01:40:16;;;;;;;4.07;2.95;;;;;;;;;;5049736;28;20043;-81
2021/05/31 01:42:42;;;;;;;2.67;2.47;;;;;;;;;;5052591;28;20032;-78
2021/05/31 01:45:10;;;;;;;2.45;2.25;;;;;;;;;;5052005;28;20021;-80
2021/05/31 01:47:37;;;;;;;3.40;2.20;;;;;;;;;;5051232;28;20029;-81
2021/05/31 01:50:06;;;;;;;2.53;2.10;;;;;;;;;;5051126;28;20037;-81
2021/05/31 01:52:32;;;;;;;4.00;2.80;;;;;;;;;;5043314;28;20120;-79
2021/05/31 01:54:59;;;;;;;2.80;2.25;;;;;;;;;;5039505;28;20033;-81
2021/05/31 01:57:25;;;;;;;2.60;2.40;;;;;;;;;;5039337;28;20026;-79
2021/05/31 01:59:52;;;;;;;4.50;3.03;;;;;;;;;;5047133;28;20029;-81
2021/05/31 02:02:19;;;;;;;3.95;2.42;;;;;;;;;;5045429;28;20021;-80
2021/05/31 02:04:45;;;;;;;2.90;2.42;;;;;;;;;;5049450;28;20032;-80
2021/05/31 02:07:11;;;;;;;3.83;2.40;;;;;;;;;;5051915;28;20026;-79
2021/05/31 02:09:38;;;;;;;9.57;3.15;;;;;;;;;;5048880;28;20021;-81
2021/05/31 02:12:06;;;;;;;3.80;3.15;;;;;;;;;;5048914;28;20025;-80
2021/05/31 02:14:38;;;;;;;3.33;2.42;;;;;;;;;;5044863;28;20033;-80
2021/05/31 02:17:08;;;;;;;4.75;2.50;;;;;;;;;;5040782;28;20286;-80
2021/05/31 02:19:35;;;;;;;2.97;2.22;;;;;;;;;;5038180;28;20099;-79
2021/05/31 02:22:02;;;;;;;3.25;2.20;;;;;;;;;;5040652;28;20072;-81
2021/05/31 02:24:31;;;;;;;2.55;2.17;;;;;;;;;;5028560;28;20030;-80
2021/05/31 02:26:57;;;;;;;3.78;3.05;;;;;;;;;;5041955;28;20033;-81
2021/05/31 02:29:23;;;;;;;3.75;3.03;;;;;;;;;;5017475;28;20029;-81
2021/05/31 02:31:52;;;;;;;4.00;2.95;;;;;;;;;;5017873;28;20025;-81
2021/05/31 02:34:19;;;;;;;6.25;3.38;;;;;;;;;;5018853;28;20081;-81
2021/05/31 02:36:45;;;;;;;5.55;2.67;;;;;;;;;;5017755;28;20081;-80
2021/05/31 02:39:11;;;;;;;3.67;2.45;;;;;;;;;;5018365;28;20032;-81
2021/05/31 02:41:37;;;;;;;3.63;2.42;;;;;;;;;;5022578;28;20026;-80
2021/05/31 02:44:03;;;;;;;6.65;3.25;;;;;;;;;;5020409;28;20105;-80
2021/05/31 02:46:29;;;;;;;2.92;2.38;;;;;;;;;;5022322;28;20463;-82
2021/05/31 02:48:55;;;;;;;2.97;2.72;;;;;;;;;;5022554;28;20041;-81
2021/05/31 02:51:21;;;;;;;5.38;3.53;;;;;;;;;;5021383;28;20036;-81
2021/05/31 02:53:47;;;;;;;3.95;2.97;;;;;;;;;;5019558;28;20022;-81
2021/05/31 02:56:13;;;;;;;4.15;3.17;;;;;;;;;;5032093;28;20033;-79
2021/05/31 02:58:41;;;;;;;5.07;3.50;;;;;;;;;;5041180;28;20067;-80
2021/05/31 03:01:08;;;;;;;3.03;2.63;;;;;;;;;;5041481;28;20021;-80
2021/05/31 03:03:34;;;;;;;2.50;2.30;;;;;;;;;;5042494;28;20097;-80
2021/05/31 03:06:00;;;;;;;2.92;2.63;;;;;;;;;;5041540;28;20033;-79
2021/05/31 03:08:26;;;;;;;3.45;2.92;;;;;;;;;;5040863;28;20025;-80
2021/05/31 03:10:54;;;;;;;4.03;3.20;;;;;;;;;;5042174;28;20033;-80
2021/05/31 03:13:21;;;;;;;3.38;2.80;;;;;;;;;;5041327;28;20056;-80
2021/05/31 03:15:47;;;;;;;5.55;3.67;;;;;;;;;;5040604;28;20053;-80
2021/05/31 03:18:13;;;;;;;5.70;3.15;;;;;;;;;;5041716;28;20494;-81
2021/05/31 03:20:39;;;;;;;3.47;2.00;;;;;;;;;;5040702;28;20614;-79
2021/05/31 03:23:05;;;;;;;4.28;2.55;;;;;;;;;;5039816;28;20029;-81
2021/05/31 03:25:32;;;;;;;4.72;2.35;;;;;;;;;;5032953;28;20386;-80
2021/05/31 03:27:58;;;;;;;3.83;2.42;;;;;;;;;;5038642;28;20431;-81
2021/05/31 03:30:25;;;;;;;6.18;2.30;;;;;;;;;;5041501;28;20087;-80
2021/05/31 03:32:51;;;;;;;3.72;2.60;;;;;;;;;;5041009;28;20056;-81
2021/05/31 03:35:18;;;;;;;3.08;2.35;;;;;;;;;;5037999;28;20060;-81
2021/05/31 03:37:44;;;;;;;4.00;3.15;;;;;;;;;;5039416;28;20021;-82
2021/05/31 03:40:11;;;;;;;2.10;1.90;;;;;;;;;;5040553;28;20036;-79
2021/05/31 03:42:38;;;;;;;3.00;2.58;;;;;;;;;;5040577;28;20021;-79
2021/05/31 03:45:04;;;;;;;4.57;2.90;;;;;;;;;;5056398;28;20049;-78
2021/05/31 03:47:30;;;;;;;2.72;2.30;;;;;;;;;;5045658;28;20025;-81
2021/05/31 03:49:56;;;;;;;2.85;2.47;;;;;;;;;;5047977;28;20025;-80
2021/05/31 03:52:22;;;;;;;2.33;2.13;;;;;;;;;;5046362;28;20112;-81
2021/05/31 03:54:49;;;;;;;2.67;2.40;;;;;;;;;;5037382;28;20111;-81
2021/05/31 03:57:15;;;;;;;1.92;1.83;;;;;;;;;;5032245;28;20458;-81
2021/05/31 03:59:41;;;;;;;2.30;2.10;;;;;;;;;;5040485;28;20021;-81
2021/05/31 04:02:08;;;;;;;3.08;2.45;;;;;;;;;;5039095;28;20071;-81
2021/05/31 04:04:40;;;;;;;2.83;2.45;;;;;;;;;;5040202;28;20025;-81
2021/05/31 04:12:37;;;;;;;2.53;2.10;;;;;;;;;;5043447;28;20040;-81
2021/05/31 04:15:04;;;;;;;2.78;2.25;;;;;;;;;;5047446;28;20109;-79
2021/05/31 04:17:30;;;;;;;2.80;2.13;;;;;;;;;;5042205;28;20072;-81
2021/05/31 04:19:56;;;;;;;2.95;2.65;;;;;;;;;;5046350;28;20057;-78
2021/05/31 04:22:22;;;;;;;3.03;2.72;;;;;;;;;;5038889;28;20026;-81
2021/05/31 04:24:48;;;;;;;3.42;2.50;;;;;;;;;;5039147;28;20116;-81
2021/05/31 04:27:14;;;;;;;5.93;4.28;;;;;;;;;;5024967;28;20018;-82
2021/05/31 04:29:40;;;;;;;5.00;3.03;;;;;;;;;;5021200;28;20025;-81
2021/05/31 04:32:06;;;;;;;3.83;3.17;;;;;;;;;;5019926;28;20096;-81
2021/05/31 04:34:32;;;;;;;6.38;3.20;;;;;;;;;;5017597;28;20021;-81
2021/05/31 04:36:58;;;;;;;4.47;2.92;;;;;;;;;;5025252;28;20036;-82
2021/05/31 04:39:24;;;;;;;2.90;2.60;;;;;;;;;;5039507;28;20025;-81
2021/05/31 04:41:50;;;;;;;3.58;2.80;;;;;;;;;;5034682;28;20489;-81
2021/05/31 04:44:17;;;;;;;5.43;3.58;;;;;;;;;;5017773;28;20409;-81
2021/05/31 04:46:43;;;;;;;4.15;3.45;;;;;;;;;;5021208;28;20026;-81
2021/05/31 04:49:09;;;;;;;5.15;3.63;;;;;;;;;;5020858;28;20022;-82
2021/05/31 04:51:35;;;;;;;5.55;3.38;;;;;;;;;;5021143;28;20064;-81
2021/05/31 04:54:01;;;;;;;4.35;3.40;;;;;;;;;;5021578;28;20117;-81
2021/05/31 04:56:28;;;;;;;3.30;2.85;;;;;;;;;;5036389;28;20037;-82
2021/05/31 04:58:54;;;;;;;4.88;3.05;;;;;;;;;;5045768;28;20029;-82
2021/05/31 05:01:20;;;;;;;3.83;2.60;;;;;;;;;;5043300;28;20565;-81
2021/05/31 05:03:46;;;;;;;5.45;3.55;;;;;;;;;;5043249;28;20045;-80
2021/05/31 05:06:12;;;;;;;4.28;3.30;;;;;;;;;;5041689;28;20049;-79
2021/05/31 05:08:38;;;;;;;3.80;3.17;;;;;;;;;;5018935;28;20030;-80
2021/05/31 05:11:05;;;;;;;4.25;3.20;;;;;;;;;;5041486;28;20495;-79
2021/05/31 05:13:31;;;;;;;4.40;3.22;;;;;;;;;;5029061;28;20052;-77
2021/05/31 05:15:58;;;;;;;6.07;3.72;;;;;;;;;;5027574;28;20183;-80
2021/05/31 05:18:24;;;;;;;4.25;3.75;;;;;;;;;;5027822;28;20022;-79
2021/05/31 05:20:50;;;;;;;3.08;2.80;;;;;;;;;;5027613;28;20094;-80
2021/05/31 05:23:16;;;;;;;2.83;1.83;;;;;;;;;;5028458;28;20022;-79
2021/05/31 05:25:42;;;;;;;2.00;1.90;;;;;;;;;;5034103;28;20037;-81
2021/05/31 05:28:08;;;;;;;6.47;3.65;;;;;;;;;;5031547;28;20030;-79
2021/05/31 05:30:34;;;;;;;4.78;3.45;;;;;;;;;;5021744;28;20058;-80
2021/05/31 05:33:01;;;;;;;7.78;3.67;;;;;;;;;;5020374;28;20041;-79
2021/05/31 05:35:37;;;;;;;4.03;2.97;;;;;;;;;;5028942;28;20026;-80
2021/05/31 05:44:04;;;;;;;2.60;2.40;;;;;;;;;;5030829;28;20056;-78
2021/05/31 05:46:11;;;;;;;3.13;2.90;;;;;;;;;;5022719;28;20041;-81
2021/05/31 05:48:37;;;;;;;2.97;2.75;;;;;;;;;;5020204;28;20022;-83
2021/05/31 05:51:08;;;;;;;3.70;2.35;;;;;;;;;;5019195;28;20407;-82
2021/05/31 05:53:34;;;;;;;3.72;2.65;;;;;;;;;;5019590;28;20026;-82
2021/05/31 05:56:01;;;;;;;4.60;2.60;;;;;;;;;;5021826;28;20033;-82
2021/05/31 05:58:29;;;;;;;2.90;2.60;;;;;;;;;;5031313;28;20100;-82
2021/05/31 06:00:56;;;;;;;3.42;2.53;;;;;;;;;;5040449;28;20470;-82
2021/05/31 06:03:22;;;;;;;2.65;2.45;;;;;;;;;;5041958;28;20038;-80
2021/05/31 06:05:48;;;;;;;3.53;3.22;;;;;;;;;;5037316;28;20034;-80
2021/05/31 06:08:14;;;;;;;3.17;2.85;;;;;;;;;;5021630;28;20113;-81
2021/05/31 06:10:40;;;;;;;3.22;2.83;;;;;;;;;;5022204;28;20025;-82
2021/05/31 06:13:06;;;;;;;2.70;2.50;;;;;;;;;;5019277;28;20034;-81
2021/05/31 06:15:32;;;;;;;2.47;2.20;;;;;;;;;;5017812;28;20029;-82
2021/05/31 06:17:58;;;;;;;2.63;2.30;;;;;;;;;;5022443;28;20462;-81
2021/05/31 06:20:24;;;;;;;2.83;2.50;;;;;;;;;;5025055;28;20104;-80
2021/05/31 06:22:51;;;;;;;2.90;2.50;;;;;;;;;;5023794;28;20026;-81
2021/05/31 06:25:19;;;;;;;3.28;2.58;;;;;;;;;;5025403;28;20037;-80
2021/05/31 06:27:45;;;;;;;5.38;3.70;;;;;;;;;;5031794;28;20075;-81
2021/05/31 06:30:11;;;;;;;4.45;2.50;;;;;;;;;;5040626;28;20054;-80
2021/05/31 06:32:38;;;;;;;4.15;3.42;;;;;;;;;;5042501;28;20045;-79
2021/05/31 06:35:04;;;;;;;7.53;4.28;;;;;;;;;;5025198;28;20028;-80
2021/05/31 06:37:37;;;;;;;4.65;3.05;;;;;;;;;;5021387;28;20013;-82
2021/05/31 06:40:03;;;;;;;3.47;3.10;;;;;;;;;;5030104;28;20482;-82
2021/05/31 06:42:29;;;;;;;3.30;3.00;;;;;;;;;;5024471;28;20026;-81
2021/05/31 06:44:55;;;;;;;1.70;1.60;;;;;;;;;;5019999;28;20097;-80
2021/05/31 06:47:21;;;;;;;6.32;3.60;;;;;;;;;;5022761;28;20033;-81
2021/05/31 06:49:48;;;;;;;8.68;3.78;;;;;;;;;;5019683;28;20041;-81
2021/05/31 06:52:14;;;;;;;4.35;3.42;;;;;;;;;;5021896;28;20021;-79
2021/05/31 06:54:40;;;;;;;3.40;3.10;;;;;;;;;;5023122;28;20041;-80
2021/05/31 06:57:06;;;;;;;5.53;3.53;;;;;;;;;;5034522;28;20038;-80
2021/05/31 06:59:32;;;;;;;2.92;2.67;;;;;;;;;;5036749;28;20139;-80
2021/05/31 07:01:58;;;;;;;6.55;3.15;;;;;;;;;;5030590;28;20089;-82
2021/05/31 07:04:24;;;;;;;4.43;3.58;;;;;;;;;;5030754;28;20030;-82
2021/05/31 07:06:50;;;;;;;7.03;3.78;;;;;;;;;;5029748;28;20498;-83
2021/05/31 07:09:16;;;;;;;4.40;2.72;;;;;;;;;;5039409;28;20024;-82
2021/05/31 07:11:46;;;;;;;2.85;2.10;;;;;;;;;;5042861;28;20026;-81
2021/05/31 07:14:18;;;;;;;5.82;3.45;;;;;;;;;;5042044;28;20018;-81
2021/05/31 07:16:44;;;;;;;3.80;3.03;;;;;;;;;;5031499;28;20061;-81
2021/05/31 07:19:11;;;;;;;3.97;3.42;;;;;;;;;;5022897;28;20022;-81
2021/05/31 07:21:38;;;;;;;3.88;3.35;;;;;;;;;;5022143;28;20026;-81
2021/05/31 07:24:06;;;;;;;3.17;2.78;;;;;;;;;;5020526;28;20505;-81
2021/05/31 07:26:32;;;;;;;4.80;3.45;;;;;;;;;;5019833;28;20390;-81
2021/05/31 07:28:58;;;;;;;3.65;3.30;;;;;;;;;;5027510;28;20105;-81
2021/05/31 07:31:24;;;;;;;3.35;2.70;;;;;;;;;;5018977;28;20053;-80
2021/05/31 07:33:50;;;;;;;6.03;3.78;;;;;;;;;;5020595;28;20034;-80
2021/05/31 07:36:17;;;;;;;5.90;3.53;;;;;;;;;;5021743;28;20029;-79
2021/05/31 07:38:43;;;;;;;6.38;3.53;;;;;;;;;;5023183;28;20026;-79
2021/05/31 07:41:09;;;;;;;6.10;3.85;;;;;;;;;;5019842;28;20132;-79
2021/05/31 07:43:35;;;;;;;4.90;3.83;;;;;;;;;;5020293;28;20021;-82
2021/05/31 07:46:03;;;;;;;4.63;3.47;;;;;;;;;;5019841;28;20021;-81
2021/05/31 07:48:29;;;;;;;3.17;2.72;;;;;;;;;;5019800;28;20086;-79
2021/05/31 07:51:14;;;;;;;4.97;2.85;;;;;;;;;;5030694;28;20068;-80
2021/05/31 07:53:40;;;;;;;3.90;3.30;;;;;;;;;;5029431;28;20511;-80
2021/05/31 07:56:06;;;;;;;3.40;2.90;;;;;;;;;;5032259;28;20081;-80
2021/05/31 07:58:32;;;;;;;3.42;2.80;;;;;;;;;;5041017;28;20087;-81
2021/05/31 08:01:00;;;;;;;3.83;2.38;;;;;;;;;;5043053;28;20094;-80
2021/05/31 08:03:26;;;;;;;2.95;2.60;;;;;;;;;;5042214;28;20013;-80
2021/05/31 08:05:52;;;;;;;2.95;2.65;;;;;;;;;;5043325;28;20032;-81
2021/05/31 08:08:18;;;;;;;2.33;2.08;;;;;;;;;;5033857;28;20106;-81
2021/05/31 08:10:44;;;;;;;3.97;2.58;;;;;;;;;;5023461;28;20102;-81
2021/05/31 08:13:10;;;;;;;2.70;2.50;;;;;;;;;;5023884;28;20386;-81
2021/05/31 08:15:36;;;;;;;3.00;2.70;;;;;;;;;;5022858;28;20029;-81
2021/05/31 08:18:02;;;;;;;7.53;2.88;;;;;;;;;;5020199;28;20029;-81
2021/05/31 08:20:28;;;;;;;4.10;2.30;;;;;;;;;;5022195;28;20030;-80
2021/05/31 08:22:55;;;;;;;5.68;3.70;;;;;;;;;;5023667;28;20050;-81
2021/05/31 08:25:21;;;;;;;4.60;3.00;;;;;;;;;;5030260;28;20088;-79
2021/05/31 08:27:47;;;;;;;3.17;2.88;;;;;;;;;;5045996;28;20033;-81
2021/05/31 08:30:14;;;;;;;5.03;3.35;;;;;;;;;;5027521;28;20061;-78
2021/05/31 08:32:40;;;;;;;3.67;2.70;;;;;;;;;;5023010;28;20037;-81
2021/05/31 08:35:06;;;;;;;2.60;2.40;;;;;;;;;;5023127;28;20026;-80
2021/05/31 08:37:32;;;;;;;4.25;2.95;;;;;;;;;;5029585;28;20057;-79
2021/05/31 08:39:58;;;;;;;3.15;2.80;;;;;;;;;;5027287;28;20033;-80
2021/05/31 08:42:25;;;;;;;3.85;2.95;;;;;;;;;;5028832;28;20037;-81
2021/05/31 08:44:51;;;;;;;6.72;3.95;;;;;;;;;;5027914;28;20064;-81
2021/05/31 08:47:18;;;;;;;5.40;3.83;;;;;;;;;;5028242;28;20113;-81
2021/05/31 08:49:44;;;;;;;5.30;4.13;;;;;;;;;;5029146;28;20033;-80
2021/05/31 08:52:10;;;;;;;7.60;4.15;;;;;;;;;;5023306;28;20026;-82
2021/05/31 08:54:37;;;;;;;7.05;3.83;;;;;;;;;;5020813;28;20082;-81
2021/05/31 08:57:03;;;;;;;7.03;3.88;;;;;;;;;;5021047;28;20034;-82
2021/05/31 08:59:29;;;;;;;5.45;4.43;;;;;;;;;;5027078;28;20064;-81
2021/05/31 09:01:55;;;;;;;4.07;3.25;;;;;;;;;;5034244;28;20029;-80
2021/05/31 09:04:21;;;;;;;5.40;3.90;;;;;;;;;;5042758;28;20045;-80
2021/05/31 09:06:57;;;;;;;4.25;3.85;;;;;;;;;;5028159;28;20049;-81
2021/05/31 09:09:42;;;;;;;4.82;3.17;;;;;;;;;;5035946;28;20037;-79
2021/05/31 09:12:10;;;;;;;3.58;3.28;;;;;;;;;;5021031;28;20054;-80
2021/05/31 09:14:36;;;;;;;9.73;3.35;;;;;;;;;;5017555;28;20034;-81
2021/05/31 09:17:03;;;;;;;5.15;3.85;;;;;;;;;;5019269;28;20061;-80
2021/05/31 09:19:29;;;;;;;8.02;3.67;;;;;;;;;;5020156;28;20042;-80
2021/05/31 09:21:55;;;;;;;6.60;3.08;;;;;;;;;;5020818;28;20033;-82
2021/05/31 09:24:24;;;;;;;7.28;3.45;;;;;;;;;;5019953;28;20034;-81
2021/05/31 09:26:59;;;;;;;3.38;3.05;;;;;;;;;;5034950;28;20071;-81
2021/05/31 09:29:26;;;;;;;4.22;2.90;;;;;;;;;;5024530;28;20044;-80
2021/05/31 09:32:05;;;;;;;3.13;2.80;;;;;;;;;;5028220;28;20062;-81
2021/05/31 09:34:32;;;;;;;5.20;3.22;;;;;;;;;;5040477;28;20445;-79
2021/05/31 09:37:00;;;;;;;3.80;3.00;;;;;;;;;;5021000;28;20030;-81
2021/05/31 09:39:37;;;;;;;3.60;2.85;;;;;;;;;;5019399;28;20022;-80
2021/05/31 09:42:14;;;;;;;3.72;3.22;;;;;;;;;;5021672;28;20029;-80
2021/05/31 09:44:43;;;;;;;3.53;3.22;;;;;;;;;;5019546;28;20030;-82
2021/05/31 09:47:10;;;;;;;3.88;3.17;;;;;;;;;;5020452;28;20108;-82
2021/05/31 09:49:37;;;;;;;3.20;2.90;;;;;;;;;;5020129;28;20026;-81
2021/05/31 09:52:04;;;;;;;3.35;3.05;;;;;;;;;;5022242;28;20033;-81
2021/05/31 09:54:31;;;;;;;5.53;2.85;;;;;;;;;;5025972;28;20029;-81
2021/05/31 09:56:58;;;;;;;2.65;2.45;;;;;;;;;;5032868;28;20017;-82
2021/05/31 09:59:28;;;;;;;4.18;2.72;;;;;;;;;;5036498;28;20025;-83
2021/05/31 10:01:56;;;;;;;2.78;2.50;;;;;;;;;;5024021;28;20040;-81
2021/05/31 10:09:43;;;;;;;3.22;2.88;;;;;;;;;;5023427;28;20065;-81
2021/05/31 10:12:10;;;;;;;4.18;2.80;;;;;;;;;;5024382;28;20049;-82
2021/05/31 10:14:36;;;;;;;3.40;3.10;;;;;;;;;;5026175;28;20110;-81
2021/05/31 10:17:04;;;;;;;4.47;3.22;;;;;;;;;;5023098;28;20393;-81
2021/05/31 10:19:31;;;;;;;4.57;3.05;;;;;;;;;;5022251;28;20042;-80
2021/05/31 10:21:57;;;;;;;4.93;2.80;;;;;;;;;;5034647;28;20036;-78
2021/05/31 10:24:24;;;;;;;3.78;2.72;;;;;;;;;;5035231;28;20058;-80
2021/05/31 10:26:50;;;;;;;3.83;2.72;;;;;;;;;;5024102;28;20041;-81
2021/05/31 10:29:16;;;;;;;5.20;3.30;;;;;;;;;;5038640;28;20021;-79
2021/05/31 10:31:46;;;;;;;3.20;2.90;;;;;;;;;;5043460;28;20508;-80
2021/05/31 10:34:22;;;;;;;3.42;2.83;;;;;;;;;;5041706;28;20116;-82
2021/05/31 10:36:52;;;;;;;2.90;2.58;;;;;;;;;;5024709;28;20022;-82
2021/05/31 10:39:23;;;;;;;7.05;3.47;;;;;;;;;;5024336;28;20066;-81
2021/05/31 10:41:49;;;;;;;3.58;3.10;;;;;;;;;;5025128;28;20021;-79
2021/05/31 10:44:19;;;;;;;3.17;2.33;;;;;;;;;;5029033;28;20022;-82
2021/05/31 10:46:46;;;;;;;3.92;2.38;;;;;;;;;;5011312;28;20097;-80
2021/05/31 10:49:21;;;;;;;3.10;2.75;;;;;;;;;;5028117;28;20029;-82
2021/05/31 10:51:47;;;;;;;2.88;2.45;;;;;;;;;;5047070;28;20022;-80
2021/05/31 10:54:18;;;;;;;4.90;2.67;;;;;;;;;;5042472;28;20145;-81
2021/05/31 10:56:45;;;;;;;2.78;2.50;;;;;;;;;;5028641;28;20037;-82
2021/05/31 10:59:16;;;;;;;4.32;2.63;;;;;;;;;;5036183;28;20057;-82
2021/05/31 11:01:42;;;;;;;3.10;2.47;;;;;;;;;;5032038;28;20029;-82
2021/05/31 11:04:21;;;;;;;3.53;2.33;;;;;;;;;;5025134;28;20038;-82
2021/05/31 11:06:47;;;;;;;3.55;2.53;;;;;;;;;;5025079;28;20030;-82
2021/05/31 11:09:23;;;;;;;2.75;1.90;;;;;;;;;;5025598;28;20030;-81
2021/05/31 11:11:56;;;;;;;4.03;1.92;;;;;;;;;;5027057;28;20106;-82
2021/05/31 11:14:38;;;;;;;4.10;2.85;;;;;;;;;;5022219;28;20049;-81
2021/05/31 11:17:08;;;;;;;2.10;1.90;;;;;;;;;;5022797;28;20022;-81
2021/05/31 11:19:45;;;;;;;2.70;2.10;;;;;;;;;;5033830;28;20487;-81
2021/05/31 11:22:20;;;;;;;3.05;1.90;;;;;;;;;;5021413;28;20020;-81
2021/05/31 11:25:09;;;;;;;3.42;2.63;;;;;;;;;;5023072;28;20050;-81
2021/05/31 11:27:35;;;;;;;2.10;1.67;;;;;;;;;;5028814;28;20063;-81
2021/05/31 11:30:11;;;;;;;3.67;1.80;;;;;;;;;;5041156;28;20025;-81
2021/05/31 11:32:38;;;;;;;2.22;2.00;;;;;;;;;;5042957;28;20029;-81
2021/05/31 11:35:05;;;;;;;2.08;1.92;;;;;;;;;;5041632;28;20045;-80
2021/05/31 11:37:35;;;;;;;4.25;2.40;;;;;;;;;;5022944;28;20026;-81
2021/05/31 11:40:02;;;;;;;3.38;2.00;;;;;;;;;;5024741;28;20018;-81
2021/05/31 11:42:28;;;;;;;1.88;1.77;;;;;;;;;;5024537;28;20022;-80
2021/05/31 11:44:55;;;;;;;3.75;2.15;;;;;;;;;;5023836;28;20109;-80
2021/05/31 11:47:26;;;;;;;6.57;2.20;;;;;;;;;;5024902;28;20189;-81
2021/05/31 11:49:52;;;;;;;2.25;2.05;;;;;;;;;;5027576;28;20041;-81
2021/05/31 11:52:18;;;;;;;3.22;2.03;;;;;;;;;;5025890;28;20030;-81
2021/05/31 11:54:45;;;;;;;5.07;2.38;;;;;;;;;;5028716;28;20038;-80
2021/05/31 11:57:12;;;;;;;3.58;2.28;;;;;;;;;;5038445;28;20121;-78
2021/05/31 11:59:39;;;;;;;3.50;2.25;;;;;;;;;;5043791;28;20071;-82
2021/05/31 12:02:06;;;;;;;2.70;2.40;;;;;;;;;;5051331;28;20075;-79
2021/05/31 12:04:32;;;;;;;3.33;2.10;;;;;;;;;;5045005;28;20025;-82
2021/05/31 12:07:00;;;;;;;2.80;2.53;;;;;;;;;;5030935;28;20030;-81
2021/05/31 12:09:26;;;;;;;2.40;2.20;;;;;;;;;;5031749;28;20032;-82
2021/05/31 12:12:12;;;;;;;5.85;2.70;;;;;;;;;;5031088;28;20022;-80
2021/05/31 12:14:42;;;;;;;2.75;2.40;;;;;;;;;;5013811;28;20045;-83
2021/05/31 12:17:12;;;;;;;3.45;2.47;;;;;;;;;;5030866;28;20034;-82
2021/05/31 12:19:38;;;;;;;3.05;2.10;;;;;;;;;;5029789;28;20414;-78
2021/05/31 12:22:04;;;;;;;6.72;2.55;;;;;;;;;;5031208;28;20030;-80
2021/05/31 12:24:35;;;;;;;2.50;2.00;;;;;;;;;;5029022;28;20406;-81
2021/05/31 12:27:02;;;;;;;3.63;2.67;;;;;;;;;;5036375;28;20041;-81
2021/05/31 12:29:47;;;;;;;3.08;2.00;;;;;;;;;;5036541;28;20084;-81
2021/05/31 12:32:14;;;;;;;4.45;2.28;;;;;;;;;;5031715;28;20026;-79
2021/05/31 12:34:40;;;;;;;2.42;2.22;;;;;;;;;;5032042;28;20034;-81
2021/05/31 12:37:08;;;;;;;2.97;2.20;;;;;;;;;;5028223;28;20034;-83
2021/05/31 12:39:37;;;;;;;3.72;2.17;;;;;;;;;;5025669;28;20022;-81
2021/05/31 12:42:07;;;;;;;4.43;2.08;;;;;;;;;;5023595;28;20072;-82
2021/05/31 12:44:33;;;;;;;1.98;1.88;;;;;;;;;;5022611;28;20546;-82
2021/05/31 12:47:07;;;;;;;4.18;2.03;;;;;;;;;;5027462;28;20266;-82
2021/05/31 12:49:33;;;;;;;2.38;2.17;;;;;;;;;;5024146;28;20034;-83
2021/05/31 12:51:59;;;;;;;6.35;2.70;;;;;;;;;;5038357;22;20071;-78
2021/05/31 12:54:25;;;;;;;6.03;2.53;;;;;;;;;;5056517;28;20068;-79
2021/05/31 12:56:52;;;;;;;3.60;2.75;;;;;;;;;;5077011;28;20068;-79
2021/05/31 12:59:24;;;;;;;3.13;2.28;;;;;;;;;;5088609;28;20020;-80
2021/05/31 13:01:50;;;;;;;5.35;2.65;;;;;;;;;;5099727;28;20385;-79
2021/05/31 13:04:24;;;;;;;2.83;2.03;;;;;;;;;;5103077;28;20052;-79
2021/05/31 13:06:50;;;;;;;4.82;2.20;;;;;;;;;;5084734;28;20120;-79
2021/05/31 13:09:24;;;;;;;3.47;2.30;;;;;;;;;;5084556;28;20036;-79
2021/05/31 13:11:50;;;;;;;2.92;2.67;;;;;;;;;;5084693;28;20091;-80
2021/05/31 13:14:16;;;;;;;4.18;2.20;;;;;;;;;;5083903;28;20039;-79
2021/05/31 13:16:52;;;;;;;2.00;1.90;;;;;;;;;;5084981;28;20029;-78
2021/05/31 13:19:18;;;;;;;2.10;1.90;;;;;;;;;;5084508;28;20048;-79
2021/05/31 13:21:44;;;;;;;1.95;1.85;;;;;;;;;;5082934;28;20059;-79
2021/05/31 13:24:10;;;;;;;7.93;2.47;;;;;;;;;;5081398;28;20024;-80
2021/05/31 13:26:36;;;;;;;2.22;1.60;;;;;;;;;;5082380;28;20036;-80
2021/05/31 13:29:05;;;;;;;2.10;2.00;;;;;;;;;;5094686;28;20052;-81
2021/05/31 13:31:31;;;;;;;3.67;2.00;;;;;;;;;;5100243;28;20380;-80
2021/05/31 13:33:57;;;;;;;4.68;2.58;;;;;;;;;;5099127;28;20486;-80
2021/05/31 13:36:30;;;;;;;4.53;2.05;;;;;;;;;;5089037;28;20108;-80
2021/05/31 13:39:07;;;;;;;4.00;2.03;;;;;;;;;;5078170;28;20024;-80
2021/05/31 13:41:59;;;;;;;2.53;2.17;;;;;;;;;;5079900;28;20485;-80
2021/05/31 13:44:25;;;;;;;3.40;2.20;;;;;;;;;;5075217;28;20056;-79
2021/05/31 13:46:51;;;;;;;2.03;1.85;;;;;;;;;;5077926;28;20330;-79
2021/05/31 13:49:18;;;;;;;2.00;1.80;;;;;;;;;;5076944;28;20032;-79
2021/05/31 13:51:46;;;;;;;2.63;1.60;;;;;;;;;;5079017;28;20384;-79
2021/05/31 13:54:12;;;;;;;2.10;2.00;;;;;;;;;;5078326;28;20377;-79
2021/05/31 13:56:39;;;;;;;3.45;2.20;;;;;;;;;;5078898;28;20061;-80
2021/05/31 13:59:05;;;;;;;2.63;2.33;;;;;;;;;;5086923;28;20135;-79
2021/05/31 14:01:32;;;;;;;3.70;2.78;;;;;;;;;;5078494;28;20358;-79
2021/05/31 14:03:59;;;;;;;3.33;2.08;;;;;;;;;;5077465;28;20021;-78
2021/05/31 14:06:25;;;;;;;2.03;1.70;;;;;;;;;;5076983;28;20062;-79
2021/05/31 14:08:51;;;;;;;1.48;1.38;;;;;;;;;;5077034;28;20037;-79
2021/05/31 14:11:17;;;;;;;1.92;1.77;;;;;;;;;;5076187;28;20383;-79
2021/05/31 14:13:44;;;;;;;1.77;1.67;;;;;;;;;;5077819;28;20032;-79
2021/05/31 14:16:10;;;;;;;1.80;1.67;;;;;;;;;;5075620;28;20024;-79
2021/05/31 14:18:36;;;;;;;5.72;1.70;;;;;;;;;;5077166;28;20081;-82
2021/05/31 14:21:02;;;;;;;2.78;2.08;;;;;;;;;;5077321;28;20032;-79
2021/05/31 14:23:28;;;;;;;2.15;1.52;;;;;;;;;;5076438;28;20103;-81
2021/05/31 14:25:54;;;;;;;2.10;1.90;;;;;;;;;;5078353;28;20095;-80
2021/05/31 14:28:20;;;;;;;2.05;1.70;;;;;;;;;;5090036;28;20024;-81
2021/05/31 14:30:46;;;;;;;2.42;1.85;;;;;;;;;;5098299;28;20024;-80
2021/05/31 14:33:15;;;;;;;2.15;1.85;;;;;;;;;;5096504;28;20035;-80
2021/05/31 14:35:42;;;;;;;3.42;1.80;;;;;;;;;;5075638;28;20047;-79
2021/05/31 14:38:08;;;;;;;2.15;1.50;;;;;;;;;;5076077;28;20051;-79
2021/05/31 14:40:34;;;;;;;1.85;1.75;;;;;;;;;;5080333;28;20465;-79
2021/05/31 14:43:01;;;;;;;3.38;1.88;;;;;;;;;;5079594;28;20017;-80
2021/05/31 14:45:32;;;;;;;1.70;1.60;;;;;;;;;;5078676;28;20024;-79
2021/05/31 14:47:58;;;;;;;3.05;1.85;;;;;;;;;;5080015;28;20033;-79
2021/05/31 14:50:25;;;;;;;2.70;2.15;;;;;;;;;;5079813;28;20032;-80
2021/05/31 14:52:51;;;;;;;2.00;1.90;;;;;;;;;;5079198;28;20059;-79
2021/05/31 14:55:18;;;;;;;2.00;1.90;;;;;;;;;;5079170;28;20028;-79
2021/05/31 14:57:44;;;;;;;2.10;1.80;;;;;;;;;;5088122;28;20020;-79
2021/05/31 15:00:14;;;;;;;2.28;1.60;;;;;;;;;;5099907;28;20020;-79
2021/05/31 15:02:41;;;;;;;3.30;1.67;;;;;;;;;;5096717;28;20032;-79